createdAt,value
2019-02-24T00:01:20.188Z,1.20
2019-02-24T00:03:46.685Z,1.40
2019-02-24T00:06:13.179Z,1.50
2019-02-24T00:08:39.519Z,1.20
2019-02-24T00:11:06.152Z,1.20
2019-02-24T00:13:32.713Z,0.90
2019-02-24T00:15:59.229Z,1.00
2019-02-24T00:18:25.996Z,0.90
2019-02-24T00:20:52.402Z,1.00
2019-02-24T00:23:19.001Z,1.10
2019-02-24T00:25:45.814Z,1.00
2019-02-24T00:28:13.034Z,0.90
2019-02-24T00:30:39.623Z,0.90
2019-02-24T00:35:32.740Z,0.90
2019-02-24T00:37:59.230Z,0.70
2019-02-24T00:40:25.604Z,0.70
2019-02-24T00:42:52.122Z,0.80
2019-02-24T00:45:18.693Z,0.50
2019-02-24T00:47:46.361Z,0.70
2019-02-24T00:50:12.837Z,0.50
2019-02-24T00:52:39.300Z,0.50
2019-02-24T00:55:06.277Z,0.50
2019-02-24T00:57:32.841Z,0.30
2019-02-24T00:59:59.341Z,0.40
2019-02-24T01:02:25.920Z,0.20
2019-02-24T01:04:52.584Z,0.30
2019-02-24T01:07:19.149Z,0.30
2019-02-24T01:09:45.495Z,0.10
2019-02-24T01:12:11.990Z,0.10
2019-02-24T01:14:38.514Z,0.00
2019-02-24T01:17:05.129Z,-0.20
2019-02-24T01:21:58.338Z,-0.30
2019-02-24T01:29:20.160Z,-0.30
2019-02-24T01:31:46.669Z,-0.30
2019-02-24T01:34:13.083Z,-0.20
2019-02-24T01:36:39.711Z,0.10
2019-02-24T01:39:06.352Z,0.10
2019-02-24T01:41:32.819Z,0.30
2019-02-24T01:43:59.336Z,0.40
2019-02-24T01:46:25.943Z,0.30
2019-02-24T01:48:52.526Z,0.20
2019-02-24T01:51:19.035Z,0.10
2019-02-24T01:53:45.400Z,0.00
2019-02-24T01:56:12.666Z,-0.10
2019-02-24T01:58:39.214Z,-0.10
2019-02-24T02:01:05.713Z,-0.10
2019-02-24T02:03:32.254Z,-0.30
2019-02-24T02:05:58.708Z,-0.10
2019-02-24T02:08:25.259Z,-0.30
2019-02-24T02:13:19.345Z,-0.30
2019-02-24T02:15:46.133Z,-0.20
2019-02-24T02:18:12.727Z,-0.30
2019-02-24T02:20:45.056Z,-0.30
2019-02-24T02:23:11.561Z,-0.30
2019-02-24T02:25:38.094Z,0.10
2019-02-24T02:28:04.702Z,-0.40
2019-02-24T02:30:32.612Z,-0.40
2019-02-24T02:32:59.177Z,-0.50
2019-02-24T02:35:25.878Z,-0.30
2019-02-24T02:37:52.532Z,-0.50
2019-02-24T02:40:19.204Z,-0.30
2019-02-24T02:42:45.721Z,-0.30
2019-02-24T02:45:12.206Z,-0.20
2019-02-24T02:47:38.663Z,-0.50
2019-02-24T02:50:05.528Z,-0.30
2019-02-24T02:52:32.289Z,-0.50
2019-02-24T02:54:58.707Z,-0.40
2019-02-24T02:57:25.249Z,-0.40
2019-02-24T02:59:51.596Z,-0.40
2019-02-24T03:02:24.331Z,-0.50
2019-02-24T03:07:15.340Z,-0.40
2019-02-24T03:09:41.788Z,-0.30
2019-02-24T03:12:08.351Z,-0.40
2019-02-24T03:14:34.838Z,-0.40
2019-02-24T03:19:28.441Z,-0.50
2019-02-24T03:21:54.788Z,-0.40
2019-02-24T03:24:21.201Z,-0.60
2019-02-24T03:26:47.652Z,-0.50
2019-02-24T03:29:14.158Z,-0.60
2019-02-24T03:31:41.147Z,-0.70
2019-02-24T03:34:07.629Z,-0.70
2019-02-24T03:36:34.112Z,-0.40
2019-02-24T03:39:00.579Z,-0.40
2019-02-24T03:41:27.188Z,-0.10
2019-02-24T03:43:53.545Z,-0.40
2019-02-24T03:46:20.070Z,-0.30
2019-02-24T03:48:46.439Z,-0.30
2019-02-24T03:51:12.895Z,0.00
2019-02-24T03:53:39.390Z,-0.20
2019-02-24T03:56:05.975Z,-0.10
2019-02-24T03:58:32.551Z,-0.40
2019-02-24T04:00:59.071Z,-0.30
2019-02-24T04:03:25.860Z,-0.20
2019-02-24T04:05:52.400Z,-0.20
2019-02-24T04:08:18.751Z,-0.20
2019-02-24T04:10:45.238Z,0.00
2019-02-24T04:13:11.606Z,-0.30
2019-02-24T04:15:38.215Z,-0.30
2019-02-24T04:18:04.592Z,-0.30
2019-02-24T04:22:58.145Z,-0.30
2019-02-24T04:25:24.917Z,-0.30
2019-02-24T04:27:51.323Z,-0.10
2019-02-24T04:30:17.812Z,-0.20
2019-02-24T04:35:11.506Z,-0.40
2019-02-24T04:37:37.933Z,0.00
2019-02-24T04:40:06.381Z,-0.10
2019-02-24T04:42:32.791Z,0.00
2019-02-24T04:44:59.265Z,-0.10
2019-02-24T04:47:26.025Z,0.00
2019-02-24T04:49:52.415Z,0.00
2019-02-24T04:52:21.596Z,-0.10
2019-02-24T04:54:48.099Z,-0.10
2019-02-24T04:57:14.456Z,-0.30
2019-02-24T04:59:40.942Z,-0.30
2019-02-24T05:02:07.538Z,-0.20
2019-02-24T05:04:33.893Z,-0.10
2019-02-24T05:07:00.295Z,0.20
2019-02-24T05:09:26.819Z,0.00
2019-02-24T05:11:53.613Z,0.10
2019-02-24T05:14:20.122Z,0.00
2019-02-24T05:16:46.461Z,-0.10
2019-02-24T05:21:39.565Z,-0.10
2019-02-24T05:24:06.147Z,0.00
2019-02-24T05:26:32.686Z,0.00
2019-02-24T05:28:59.333Z,0.30
2019-02-24T05:31:25.923Z,-0.20
2019-02-24T05:33:53.320Z,-0.20
2019-02-24T05:36:19.820Z,-0.10
2019-02-24T05:38:46.250Z,-0.10
2019-02-24T05:43:39.408Z,0.00
2019-02-24T05:46:06.069Z,0.00
2019-02-24T05:48:33.700Z,0.10
2019-02-24T05:51:00.168Z,0.00
2019-02-24T05:53:26.647Z,-0.10
2019-02-24T05:58:19.970Z,0.10
2019-02-24T06:03:13.274Z,0.20
2019-02-24T06:08:07.109Z,0.30
2019-02-24T06:10:33.515Z,0.30
2019-02-24T06:13:00.861Z,0.30
2019-02-24T06:15:27.284Z,0.40
2019-02-24T06:17:53.811Z,0.40
2019-02-24T06:20:20.322Z,0.20
2019-02-24T06:22:46.802Z,0.20
2019-02-24T06:25:13.288Z,0.20
2019-02-24T06:27:39.786Z,0.20
2019-02-24T06:30:07.127Z,0.30
2019-02-24T06:32:35.430Z,0.40
2019-02-24T06:35:04.666Z,0.50
2019-02-24T06:42:24.772Z,0.50
2019-02-24T06:44:51.342Z,0.90
2019-02-24T06:47:18.008Z,0.90
2019-02-24T06:49:44.620Z,0.90
2019-02-24T06:52:11.151Z,1.00
2019-02-24T06:54:37.651Z,1.00
2019-02-24T06:57:04.146Z,0.90
2019-02-24T06:59:30.641Z,1.00
2019-02-24T07:01:57.037Z,1.10
2019-02-24T07:06:50.273Z,1.00
2019-02-24T07:09:16.804Z,1.10
2019-02-24T07:11:43.380Z,1.10
2019-02-24T07:14:09.857Z,1.00
2019-02-24T07:16:36.472Z,1.30
2019-02-24T07:19:02.937Z,1.20
2019-02-24T07:21:29.441Z,1.20
2019-02-24T07:23:58.705Z,1.20
2019-02-24T07:26:25.121Z,1.40
2019-02-24T07:28:51.742Z,1.30
2019-02-24T07:31:18.313Z,1.30
2019-02-24T07:33:44.707Z,1.40
2019-02-24T07:36:11.829Z,1.50
2019-02-24T07:38:38.297Z,1.50
2019-02-24T07:41:04.806Z,1.90
2019-02-24T07:43:31.150Z,1.90
2019-02-24T07:45:57.520Z,1.90
2019-02-24T07:48:24.000Z,1.80
2019-02-24T07:53:17.416Z,2.00
2019-02-24T07:55:43.899Z,2.00
2019-02-24T07:58:10.504Z,2.10
2019-02-24T08:00:36.946Z,2.10
2019-02-24T08:03:03.659Z,2.20
2019-02-24T08:05:30.040Z,2.20
2019-02-24T08:07:56.673Z,2.50
2019-02-24T08:12:49.958Z,2.90
2019-02-24T08:15:16.531Z,3.00
2019-02-24T08:17:43.025Z,3.30
2019-02-24T08:20:09.439Z,3.30
2019-02-24T08:22:35.922Z,3.40
2019-02-24T08:27:30.179Z,3.50
2019-02-24T08:32:23.730Z,4.10
2019-02-24T08:34:50.288Z,4.20
2019-02-24T08:39:44.696Z,4.30
2019-02-24T08:42:11.131Z,4.60
2019-02-24T08:44:37.580Z,4.60
2019-02-24T08:49:30.740Z,4.90
2019-02-24T08:54:24.013Z,5.50
2019-02-24T08:56:50.482Z,5.50
2019-02-24T09:01:44.392Z,5.60
2019-02-24T09:06:37.473Z,5.90
2019-02-24T09:09:04.356Z,6.00
2019-02-24T09:11:30.755Z,6.00
2019-02-24T09:23:44.476Z,6.90
2019-02-24T09:28:38.060Z,6.90
2019-02-24T09:38:25.439Z,7.40
2019-02-24T09:43:19.866Z,7.50
2019-02-24T09:45:46.376Z,7.50
2019-02-24T09:48:13.198Z,7.70
2019-02-24T09:58:02.015Z,7.70
2019-02-24T10:02:57.499Z,7.60
2019-02-24T10:07:51.007Z,8.00
2019-02-24T10:10:17.529Z,7.90
2019-02-24T10:12:44.605Z,7.90
2019-02-24T10:17:41.054Z,8.00
2019-02-24T10:22:35.036Z,8.40
2019-02-24T10:25:01.589Z,8.40
2019-02-24T10:29:54.845Z,8.30
2019-02-24T10:37:14.900Z,8.50
2019-02-24T10:39:42.924Z,9.40
2019-02-24T10:42:09.430Z,9.40
2019-02-24T10:44:35.931Z,10.10
2019-02-24T10:49:29.086Z,12.20
2019-02-24T10:51:55.479Z,13.60
2019-02-24T10:54:22.052Z,15.10
2019-02-24T10:59:16.963Z,16.80
2019-02-24T11:01:44.420Z,16.80
2019-02-24T11:04:10.922Z,17.00
2019-02-24T11:09:05.193Z,17.10
2019-02-24T11:13:58.333Z,18.30
2019-02-24T11:16:24.905Z,18.70
2019-02-24T11:18:51.515Z,17.20
2019-02-24T11:21:18.125Z,18.20
2019-02-24T11:23:44.943Z,18.20
2019-02-24T11:33:31.861Z,17.70
2019-02-24T11:35:58.479Z,18.80
2019-02-24T11:38:25.002Z,19.90
2019-02-24T11:45:45.413Z,20.40
2019-02-24T11:50:38.825Z,19.60
2019-02-24T11:53:05.310Z,19.10
2019-02-24T11:57:58.624Z,19.30
2019-02-24T12:00:25.144Z,19.50
2019-02-24T12:02:51.584Z,19.50
2019-02-24T12:05:18.084Z,19.80
2019-02-24T12:12:39.197Z,19.00
2019-02-24T12:15:10.132Z,18.40
2019-02-24T12:17:36.719Z,18.20
2019-02-24T12:22:31.551Z,18.80
2019-02-24T12:24:57.940Z,18.90
2019-02-24T12:27:24.426Z,19.10
2019-02-24T12:29:51.311Z,20.30
2019-02-24T12:37:11.493Z,19.30
2019-02-24T12:39:38.031Z,18.60
2019-02-24T12:44:32.949Z,18.90
2019-02-24T12:49:27.353Z,18.30
2019-02-24T12:56:47.479Z,18.30
2019-02-24T13:01:40.983Z,18.00
2019-02-24T13:04:07.390Z,18.40
2019-02-24T13:09:00.801Z,18.20
2019-02-24T13:11:27.361Z,18.40
2019-02-24T13:18:47.730Z,18.70
2019-02-24T13:21:14.238Z,18.30
2019-02-24T13:26:07.762Z,18.00
2019-02-24T13:31:01.194Z,19.10
2019-02-24T13:33:27.602Z,18.90
2019-02-24T13:38:20.705Z,19.50
2019-02-24T13:45:42.906Z,19.10
2019-02-24T13:48:09.403Z,19.10
2019-02-24T13:55:29.751Z,19.30
2019-02-24T13:57:56.346Z,20.00
2019-02-24T14:00:22.960Z,20.70
2019-02-24T14:02:49.810Z,21.50
2019-02-24T14:05:16.410Z,21.70
2019-02-24T14:10:11.258Z,21.50
2019-02-24T14:12:37.764Z,21.00
2019-02-24T14:22:26.609Z,20.60
2019-02-24T14:24:52.978Z,21.00
2019-02-24T14:27:19.381Z,21.10
2019-02-24T14:32:12.734Z,20.40
2019-02-24T14:37:06.290Z,21.00
2019-02-24T14:39:32.627Z,20.30
2019-02-24T14:56:41.407Z,19.30
2019-02-24T14:59:08.217Z,19.60
2019-02-24T15:01:34.751Z,18.70
2019-02-24T15:08:54.944Z,17.90
2019-02-24T15:11:21.626Z,18.00
2019-02-24T15:13:48.082Z,18.20
2019-02-24T15:16:14.488Z,18.30
2019-02-24T15:21:07.608Z,17.90
2019-02-24T15:26:02.534Z,18.20
2019-02-24T15:28:29.502Z,18.50
2019-02-24T15:33:22.768Z,18.40
2019-02-24T15:40:42.993Z,16.40
2019-02-24T15:45:37.138Z,17.30
2019-02-24T15:48:04.046Z,17.20
2019-02-24T15:50:34.366Z,16.90
2019-02-24T15:53:00.839Z,16.50
2019-02-24T15:55:30.500Z,16.40
2019-02-24T15:57:57.726Z,16.50
2019-02-24T16:00:24.381Z,16.40
2019-02-24T16:05:17.740Z,16.20
2019-02-24T16:07:44.371Z,16.10
2019-02-24T16:12:38.969Z,14.70
2019-02-24T16:15:08.959Z,13.40
2019-02-24T16:17:35.476Z,12.60
2019-02-24T16:20:02.520Z,12.20
2019-02-24T16:22:29.772Z,11.60
2019-02-24T16:29:51.517Z,10.80
2019-02-24T16:37:14.182Z,10.20
2019-02-24T16:39:40.531Z,10.00
2019-02-24T16:42:07.077Z,9.90
2019-02-24T16:44:33.555Z,9.90
2019-02-24T16:47:00.574Z,9.40
2019-02-24T16:49:27.285Z,9.50
2019-02-24T16:56:47.899Z,9.10
2019-02-24T16:59:14.270Z,9.00
2019-02-24T17:01:40.918Z,8.70
2019-02-24T17:04:07.474Z,8.80
2019-02-24T17:06:34.112Z,9.20
2019-02-24T17:09:03.206Z,8.60
2019-02-24T17:11:29.245Z,8.50
2019-02-24T17:13:56.229Z,8.30
2019-02-24T17:16:22.722Z,8.10
2019-02-24T17:21:16.356Z,8.10
2019-02-24T17:23:49.752Z,8.20
2019-02-24T17:26:11.275Z,8.10
2019-02-24T17:28:37.912Z,7.80
2019-02-24T17:31:04.534Z,8.30
2019-02-24T17:36:00.040Z,8.40
2019-02-24T17:38:26.624Z,8.30
2019-02-24T17:43:20.324Z,8.30
2019-02-24T17:45:47.968Z,8.20
2019-02-24T17:53:08.250Z,7.90
2019-02-24T17:55:34.777Z,8.00
2019-02-24T17:58:01.284Z,8.20
2019-02-24T18:00:30.166Z,8.00
2019-02-24T18:02:56.736Z,7.80
2019-02-24T18:05:23.358Z,7.80
2019-02-24T18:10:16.922Z,7.70
2019-02-24T18:12:45.468Z,7.60
2019-02-24T18:15:13.660Z,7.60
2019-02-24T18:17:41.332Z,7.60
2019-02-24T18:20:17.676Z,7.60
2019-02-24T18:22:44.297Z,8.10
2019-02-24T18:27:38.346Z,7.50
2019-02-24T18:30:24.060Z,7.60
2019-02-24T18:32:51.857Z,7.40
2019-02-24T18:35:18.455Z,7.10
2019-02-24T18:37:47.670Z,6.90
2019-02-24T18:42:41.514Z,6.90
2019-02-24T18:45:10.241Z,6.70
2019-02-24T18:47:36.850Z,6.50
2019-02-24T18:50:13.301Z,6.20
2019-02-24T18:52:39.911Z,6.10
2019-02-24T18:57:34.369Z,5.90
2019-02-24T19:00:00.915Z,5.60
2019-02-24T19:07:20.861Z,5.70
2019-02-24T19:12:14.857Z,6.10
2019-02-24T19:14:41.431Z,5.70
2019-02-24T19:17:08.052Z,5.60
2019-02-24T19:19:34.750Z,5.30
2019-02-24T19:24:28.138Z,5.00
2019-02-24T19:29:22.645Z,5.00
2019-02-24T19:31:49.347Z,5.00
2019-02-24T19:34:15.923Z,5.00
2019-02-24T19:36:42.451Z,4.80
2019-02-24T19:39:12.308Z,4.80
2019-02-24T19:44:05.895Z,5.10
2019-02-24T19:46:32.425Z,4.90
2019-02-24T19:48:59.080Z,5.10
2019-02-24T19:51:26.060Z,5.30
2019-02-24T19:53:52.632Z,5.40
2019-02-24T19:56:19.066Z,5.40
2019-02-24T19:58:48.446Z,5.30
2019-02-24T20:01:16.498Z,6.00
2019-02-24T20:03:45.075Z,5.50
2019-02-24T20:06:11.708Z,5.50
2019-02-24T20:08:38.375Z,5.50
2019-02-24T20:11:05.341Z,5.50
2019-02-24T20:13:32.007Z,5.40
2019-02-24T20:15:58.599Z,5.00
2019-02-24T20:18:25.157Z,5.20
2019-02-24T20:20:52.115Z,4.80
2019-02-24T20:23:18.999Z,5.00
2019-02-24T20:28:12.927Z,5.00
2019-02-24T20:30:39.520Z,4.80
2019-02-24T20:33:06.097Z,4.70
2019-02-24T20:35:32.862Z,4.70
2019-02-24T20:37:59.427Z,4.70
2019-02-24T20:40:26.045Z,5.10
2019-02-24T20:42:52.668Z,4.60
2019-02-24T20:45:23.206Z,4.70
2019-02-24T20:47:49.949Z,4.60
2019-02-24T20:50:22.324Z,4.80
2019-02-24T20:52:49.438Z,4.70
2019-02-24T20:55:19.997Z,4.70
2019-02-24T20:57:46.738Z,4.90
2019-02-24T21:00:22.530Z,5.00
2019-02-24T21:05:42.933Z,5.10
2019-02-24T21:10:37.685Z,5.20
2019-02-24T21:13:06.417Z,5.00
2019-02-24T21:20:43.050Z,4.90
2019-02-24T21:23:09.630Z,5.00
2019-02-24T21:25:36.491Z,5.00
2019-02-24T21:28:03.146Z,4.90
2019-02-24T21:30:31.699Z,4.90
2019-02-24T21:32:58.183Z,4.70
2019-02-24T21:35:24.801Z,4.90
2019-02-24T21:37:51.285Z,4.60
2019-02-24T21:40:18.516Z,4.70
2019-02-24T21:47:48.735Z,4.50
2019-02-24T21:52:42.265Z,4.30
2019-02-24T21:55:10.214Z,4.60
2019-02-24T21:57:36.736Z,4.40
2019-02-24T22:00:09.333Z,4.60
2019-02-24T22:02:36.024Z,4.60
2019-02-24T22:05:05.357Z,4.60
2019-02-24T22:07:32.065Z,4.50
2019-02-24T22:12:25.434Z,4.10
2019-02-24T22:14:51.782Z,3.80
2019-02-24T22:17:18.304Z,3.70
2019-02-24T22:19:45.226Z,3.80
2019-02-24T22:22:11.899Z,3.50
2019-02-24T22:24:38.460Z,3.30
2019-02-24T22:27:04.997Z,3.20
2019-02-24T22:31:58.511Z,3.00
2019-02-24T22:34:25.033Z,3.10
2019-02-24T22:36:51.511Z,3.00
2019-02-24T22:39:18.097Z,3.00
2019-02-24T22:41:44.585Z,3.20
2019-02-24T22:44:11.304Z,2.50
2019-02-24T22:46:37.902Z,2.70
2019-02-24T22:49:04.416Z,2.80
2019-02-24T22:51:30.824Z,3.10
2019-02-24T22:53:57.587Z,2.90
2019-02-24T22:56:24.314Z,2.80
2019-02-24T22:58:50.825Z,2.90
2019-02-24T23:01:19.607Z,3.50
2019-02-24T23:03:46.183Z,3.40
2019-02-24T23:06:12.817Z,3.60
2019-02-24T23:08:39.383Z,3.50
2019-02-24T23:11:05.984Z,3.40
2019-02-24T23:13:32.730Z,3.40
2019-02-24T23:23:19.989Z,3.80
2019-02-24T23:25:46.619Z,4.00
2019-02-24T23:28:13.456Z,4.20
2019-02-24T23:30:40.112Z,3.80
2019-02-24T23:33:06.637Z,4.10
2019-02-24T23:35:33.338Z,4.10
2019-02-24T23:40:26.973Z,3.90
2019-02-24T23:42:53.583Z,3.90
2019-02-24T23:45:20.221Z,3.80
2019-02-24T23:47:46.614Z,3.70
2019-02-24T23:50:13.221Z,3.60
2019-02-24T23:52:40.052Z,3.60
2019-02-24T23:55:07.925Z,3.60
2019-02-24T23:57:34.828Z,3.70
